sensor_id;sensor_type;location;lat;lon;timestamp;P1;durP1;ratioP1;P2;durP2;ratioP2
12228;SDS011;6177;52.402;9.800;2022-08-19T00:02:03;8.02;;;7.30;;
12228;SDS011;6177;52.402;9.800;2022-08-19T00:04:47;7.80;;;7.30;;
12228;SDS011;6177;52.402;9.800;2022-08-19T00:07:36;7.55;;;7.05;;
12228;SDS011;6177;52.402;9.800;2022-08-19T00:10:21;8.82;;;7.93;;
12228;SDS011;6177;52.402;9.800;2022-08-19T00:13:06;9.45;;;7.50;;
12228;SDS011;6177;52.402;9.800;2022-08-19T00:15:51;9.05;;;8.25;;
12228;SDS011;6177;52.402;9.800;2022-08-19T00:18:35;8.77;;;7.97;;
12228;SDS011;6177;52.402;9.800;2022-08-19T00:21:20;8.52;;;7.70;;
12228;SDS011;6177;52.402;9.800;2022-08-19T00:24:09;8.65;;;8.05;;
12228;SDS011;6177;52.402;9.800;2022-08-19T00:26:55;10.15;;;7.88;;
12228;SDS011;6177;52.402;9.800;2022-08-19T00:29:41;8.98;;;8.25;;
12228;SDS011;6177;52.402;9.800;2022-08-19T00:32:25;8.40;;;7.80;;
12228;SDS011;6177;52.402;9.800;2022-08-19T00:35:10;8.77;;;8.07;;
12228;SDS011;6177;52.402;9.800;2022-08-19T00:37:55;9.05;;;8.35;;
12228;SDS011;6177;52.402;9.800;2022-08-19T00:40:42;8.63;;;7.93;;
12228;SDS011;6177;52.402;9.800;2022-08-19T00:43:30;8.73;;;7.88;;
12228;SDS011;6177;52.402;9.800;2022-08-19T00:46:14;8.48;;;7.68;;
12228;SDS011;6177;52.402;9.800;2022-08-19T00:48:59;8.20;;;7.63;;
12228;SDS011;6177;52.402;9.800;2022-08-19T00:51:47;8.43;;;7.68;;
12228;SDS011;6177;52.402;9.800;2022-08-19T00:54:36;8.65;;;7.88;;
12228;SDS011;6177;52.402;9.800;2022-08-19T00:57:45;8.75;;;8.05;;
12228;SDS011;6177;52.402;9.800;2022-08-19T01:00:31;9.43;;;8.63;;
12228;SDS011;6177;52.402;9.800;2022-08-19T01:03:19;8.13;;;7.63;;
12228;SDS011;6177;52.402;9.800;2022-08-19T01:06:05;10.35;;;8.77;;
12228;SDS011;6177;52.402;9.800;2022-08-19T01:08:50;9.50;;;8.90;;
12228;SDS011;6177;52.402;9.800;2022-08-19T01:11:35;8.93;;;8.25;;
12228;SDS011;6177;52.402;9.800;2022-08-19T01:14:23;10.35;;;9.45;;
12228;SDS011;6177;52.402;9.800;2022-08-19T01:17:09;9.73;;;8.93;;
12228;SDS011;6177;52.402;9.800;2022-08-19T01:19:54;10.05;;;9.25;;
12228;SDS011;6177;52.402;9.800;2022-08-19T01:25:32;9.98;;;8.98;;
12228;SDS011;6177;52.402;9.800;2022-08-19T01:28:23;9.90;;;8.88;;
12228;SDS011;6177;52.402;9.800;2022-08-19T01:31:12;10.50;;;9.65;;
12228;SDS011;6177;52.402;9.800;2022-08-19T01:33:59;10.00;;;9.25;;
12228;SDS011;6177;52.402;9.800;2022-08-19T01:36:46;9.30;;;8.60;;
12228;SDS011;6177;52.402;9.800;2022-08-19T01:39:32;11.18;;;10.07;;
12228;SDS011;6177;52.402;9.800;2022-08-19T01:42:18;9.73;;;8.82;;
12228;SDS011;6177;52.402;9.800;2022-08-19T01:45:04;10.25;;;9.38;;
12228;SDS011;6177;52.402;9.800;2022-08-19T01:47:50;10.23;;;9.50;;
12228;SDS011;6177;52.402;9.800;2022-08-19T01:50:35;12.35;;;10.25;;
12228;SDS011;6177;52.402;9.800;2022-08-19T01:53:19;10.95;;;10.05;;
12228;SDS011;6177;52.402;9.800;2022-08-19T01:56:05;10.45;;;9.75;;
12228;SDS011;6177;52.402;9.800;2022-08-19T01:58:55;11.50;;;10.40;;
12228;SDS011;6177;52.402;9.800;2022-08-19T02:01:44;11.80;;;10.65;;
12228;SDS011;6177;52.402;9.800;2022-08-19T02:04:29;11.38;;;10.32;;
12228;SDS011;6177;52.402;9.800;2022-08-19T02:07:14;11.40;;;10.40;;
12228;SDS011;6177;52.402;9.800;2022-08-19T02:09:58;11.02;;;10.13;;
12228;SDS011;6177;52.402;9.800;2022-08-19T02:12:47;11.25;;;10.25;;
12228;SDS011;6177;52.402;9.800;2022-08-19T02:15:35;12.02;;;10.82;;
12228;SDS011;6177;52.402;9.800;2022-08-19T02:18:20;11.30;;;10.50;;
12228;SDS011;6177;52.402;9.800;2022-08-19T02:21:04;11.48;;;10.52;;
12228;SDS011;6177;52.402;9.800;2022-08-19T02:23:50;10.85;;;9.95;;
12228;SDS011;6177;52.402;9.800;2022-08-19T02:26:34;11.95;;;10.88;;
12228;SDS011;6177;52.402;9.800;2022-08-19T02:29:19;10.57;;;9.68;;
12228;SDS011;6177;52.402;9.800;2022-08-19T02:32:04;10.55;;;9.55;;
12228;SDS011;6177;52.402;9.800;2022-08-19T02:34:49;11.50;;;10.60;;
12228;SDS011;6177;52.402;9.800;2022-08-19T02:37:34;11.02;;;9.90;;
12228;SDS011;6177;52.402;9.800;2022-08-19T02:40:37;10.85;;;9.90;;
12228;SDS011;6177;52.402;9.800;2022-08-19T02:43:22;10.52;;;9.57;;
12228;SDS011;6177;52.402;9.800;2022-08-19T02:46:14;9.77;;;8.88;;
12228;SDS011;6177;52.402;9.800;2022-08-19T02:49:09;9.65;;;8.90;;
12228;SDS011;6177;52.402;9.800;2022-08-19T02:51:54;10.48;;;9.40;;
12228;SDS011;6177;52.402;9.800;2022-08-19T02:54:38;9.52;;;8.73;;
12228;SDS011;6177;52.402;9.800;2022-08-19T02:57:23;9.18;;;8.45;;
12228;SDS011;6177;52.402;9.800;2022-08-19T03:00:08;9.32;;;8.63;;
12228;SDS011;6177;52.402;9.800;2022-08-19T03:02:57;9.35;;;8.45;;
12228;SDS011;6177;52.402;9.800;2022-08-19T03:05:41;9.48;;;8.57;;
12228;SDS011;6177;52.402;9.800;2022-08-19T03:08:26;9.45;;;8.35;;
12228;SDS011;6177;52.402;9.800;2022-08-19T03:11:44;8.90;;;8.02;;
12228;SDS011;6177;52.402;9.800;2022-08-19T03:14:22;8.43;;;7.82;;
12228;SDS011;6177;52.402;9.800;2022-08-19T03:17:06;8.75;;;8.13;;
12228;SDS011;6177;52.402;9.800;2022-08-19T03:19:51;8.30;;;7.68;;
12228;SDS011;6177;52.402;9.800;2022-08-19T03:22:36;8.68;;;7.97;;
12228;SDS011;6177;52.402;9.800;2022-08-19T03:25:21;8.50;;;7.88;;
12228;SDS011;6177;52.402;9.800;2022-08-19T03:28:06;8.60;;;7.85;;
12228;SDS011;6177;52.402;9.800;2022-08-19T03:31:03;8.57;;;7.97;;
12228;SDS011;6177;52.402;9.800;2022-08-19T03:33:51;10.27;;;8.13;;
12228;SDS011;6177;52.402;9.800;2022-08-19T03:36:35;8.95;;;8.13;;
12228;SDS011;6177;52.402;9.800;2022-08-19T03:39:20;10.25;;;9.25;;
12228;SDS011;6177;52.402;9.800;2022-08-19T03:42:06;8.52;;;7.82;;
12228;SDS011;6177;52.402;9.800;2022-08-19T03:44:52;9.65;;;8.77;;
12228;SDS011;6177;52.402;9.800;2022-08-19T03:47:36;10.18;;;9.15;;
12228;SDS011;6177;52.402;9.800;2022-08-19T03:50:23;9.88;;;9.07;;
12228;SDS011;6177;52.402;9.800;2022-08-19T03:53:08;9.63;;;8.75;;
12228;SDS011;6177;52.402;9.800;2022-08-19T03:55:53;9.93;;;8.93;;
12228;SDS011;6177;52.402;9.800;2022-08-19T03:58:38;9.25;;;8.52;;
12228;SDS011;6177;52.402;9.800;2022-08-19T04:01:25;9.88;;;8.88;;
12228;SDS011;6177;52.402;9.800;2022-08-19T04:04:12;10.80;;;9.85;;
12228;SDS011;6177;52.402;9.800;2022-08-19T04:06:57;10.50;;;9.47;;
12228;SDS011;6177;52.402;9.800;2022-08-19T04:09:42;9.77;;;9.00;;
12228;SDS011;6177;52.402;9.800;2022-08-19T04:12:26;10.10;;;9.18;;
12228;SDS011;6177;52.402;9.800;2022-08-19T04:15:11;10.15;;;9.20;;
12228;SDS011;6177;52.402;9.800;2022-08-19T04:17:56;9.45;;;8.65;;
12228;SDS011;6177;52.402;9.800;2022-08-19T04:20:45;8.75;;;8.05;;
12228;SDS011;6177;52.402;9.800;2022-08-19T04:23:31;10.48;;;9.60;;
12228;SDS011;6177;52.402;9.800;2022-08-19T04:26:17;8.82;;;8.05;;
12228;SDS011;6177;52.402;9.800;2022-08-19T04:29:05;9.30;;;8.55;;
12228;SDS011;6177;52.402;9.800;2022-08-19T04:31:53;10.20;;;9.18;;
12228;SDS011;6177;52.402;9.800;2022-08-19T04:34:39;8.93;;;8.10;;
12228;SDS011;6177;52.402;9.800;2022-08-19T04:37:24;10.45;;;9.45;;
12228;SDS011;6177;52.402;9.800;2022-08-19T04:40:10;9.63;;;8.82;;
12228;SDS011;6177;52.402;9.800;2022-08-19T04:43:13;9.27;;;8.48;;
12228;SDS011;6177;52.402;9.800;2022-08-19T04:46:03;9.48;;;8.57;;
12228;SDS011;6177;52.402;9.800;2022-08-19T04:48:50;8.90;;;8.20;;
12228;SDS011;6177;52.402;9.800;2022-08-19T04:51:35;9.38;;;8.48;;
12228;SDS011;6177;52.402;9.800;2022-08-19T04:54:21;9.52;;;8.68;;
12228;SDS011;6177;52.402;9.800;2022-08-19T04:57:08;8.98;;;8.27;;
12228;SDS011;6177;52.402;9.800;2022-08-19T04:59:54;9.00;;;8.30;;
12228;SDS011;6177;52.402;9.800;2022-08-19T05:02:40;9.18;;;8.48;;
12228;SDS011;6177;52.402;9.800;2022-08-19T05:05:24;9.02;;;8.30;;
12228;SDS011;6177;52.402;9.800;2022-08-19T05:08:09;9.60;;;8.80;;
12228;SDS011;6177;52.402;9.800;2022-08-19T05:10:54;10.10;;;9.20;;
12228;SDS011;6177;52.402;9.800;2022-08-19T05:13:39;9.95;;;9.07;;
12228;SDS011;6177;52.402;9.800;2022-08-19T05:16:25;9.40;;;8.57;;
12228;SDS011;6177;52.402;9.800;2022-08-19T05:19:10;10.25;;;9.35;;
12228;SDS011;6177;52.402;9.800;2022-08-19T05:22:13;9.60;;;8.88;;
12228;SDS011;6177;52.402;9.800;2022-08-19T05:25:18;10.93;;;10.05;;
12228;SDS011;6177;52.402;9.800;2022-08-19T05:28:04;10.48;;;9.57;;
12228;SDS011;6177;52.402;9.800;2022-08-19T05:30:49;10.15;;;9.35;;
12228;SDS011;6177;52.402;9.800;2022-08-19T05:33:34;10.87;;;9.87;;
12228;SDS011;6177;52.402;9.800;2022-08-19T05:36:19;11.48;;;10.60;;
12228;SDS011;6177;52.402;9.800;2022-08-19T05:39:04;10.77;;;9.70;;
12228;SDS011;6177;52.402;9.800;2022-08-19T05:41:51;10.65;;;9.85;;
12228;SDS011;6177;52.402;9.800;2022-08-19T05:44:42;11.32;;;10.23;;
12228;SDS011;6177;52.402;9.800;2022-08-19T05:47:33;10.38;;;9.55;;
12228;SDS011;6177;52.402;9.800;2022-08-19T05:50:17;9.63;;;8.90;;
12228;SDS011;6177;52.402;9.800;2022-08-19T05:53:02;10.45;;;9.45;;
12228;SDS011;6177;52.402;9.800;2022-08-19T05:55:47;10.38;;;9.50;;
12228;SDS011;6177;52.402;9.800;2022-08-19T05:58:32;10.05;;;9.25;;
12228;SDS011;6177;52.402;9.800;2022-08-19T06:01:19;10.50;;;9.60;;
12228;SDS011;6177;52.402;9.800;2022-08-19T06:04:04;10.23;;;9.40;;
12228;SDS011;6177;52.402;9.800;2022-08-19T06:06:50;10.07;;;9.07;;
12228;SDS011;6177;52.402;9.800;2022-08-19T06:09:35;11.43;;;10.35;;
12228;SDS011;6177;52.402;9.800;2022-08-19T06:12:21;11.05;;;9.95;;
12228;SDS011;6177;52.402;9.800;2022-08-19T06:15:16;10.98;;;10.00;;
12228;SDS011;6177;52.402;9.800;2022-08-19T06:18:01;11.07;;;10.18;;
12228;SDS011;6177;52.402;9.800;2022-08-19T06:20:46;11.02;;;10.13;;
12228;SDS011;6177;52.402;9.800;2022-08-19T06:23:31;10.68;;;9.73;;
12228;SDS011;6177;52.402;9.800;2022-08-19T06:26:16;11.70;;;10.60;;
12228;SDS011;6177;52.402;9.800;2022-08-19T06:29:03;11.07;;;9.98;;
12228;SDS011;6177;52.402;9.800;2022-08-19T06:31:51;11.15;;;10.05;;
12228;SDS011;6177;52.402;9.800;2022-08-19T06:34:38;9.40;;;8.70;;
12228;SDS011;6177;52.402;9.800;2022-08-19T06:37:23;10.52;;;9.57;;
12228;SDS011;6177;52.402;9.800;2022-08-19T06:40:07;10.02;;;9.23;;
12228;SDS011;6177;52.402;9.800;2022-08-19T06:42:54;9.85;;;9.00;;
12228;SDS011;6177;52.402;9.800;2022-08-19T06:45:41;10.05;;;9.15;;
12228;SDS011;6177;52.402;9.800;2022-08-19T06:48:26;9.23;;;8.48;;
12228;SDS011;6177;52.402;9.800;2022-08-19T06:51:12;9.88;;;8.98;;
12228;SDS011;6177;52.402;9.800;2022-08-19T06:54:02;10.25;;;9.30;;
12228;SDS011;6177;52.402;9.800;2022-08-19T06:56:47;9.95;;;9.13;;
12228;SDS011;6177;52.402;9.800;2022-08-19T06:59:32;9.23;;;8.52;;
12228;SDS011;6177;52.402;9.800;2022-08-19T07:02:17;9.30;;;8.55;;
12228;SDS011;6177;52.402;9.800;2022-08-19T07:05:02;10.15;;;9.38;;
12228;SDS011;6177;52.402;9.800;2022-08-19T07:07:48;9.73;;;8.95;;
12228;SDS011;6177;52.402;9.800;2022-08-19T07:13:58;10.35;;;9.65;;
12228;SDS011;6177;52.402;9.800;2022-08-19T07:16:47;9.48;;;8.60;;
12228;SDS011;6177;52.402;9.800;2022-08-19T07:19:33;11.52;;;10.45;;
12228;SDS011;6177;52.402;9.800;2022-08-19T07:26:09;13.13;;;12.13;;
12228;SDS011;6177;52.402;9.800;2022-08-19T07:29:05;12.73;;;11.50;;
12228;SDS011;6177;52.402;9.800;2022-08-19T07:31:50;14.57;;;13.18;;
12228;SDS011;6177;52.402;9.800;2022-08-19T07:34:35;13.43;;;12.32;;
12228;SDS011;6177;52.402;9.800;2022-08-19T07:37:21;14.10;;;12.60;;
12228;SDS011;6177;52.402;9.800;2022-08-19T07:40:07;12.90;;;11.90;;
12228;SDS011;6177;52.402;9.800;2022-08-19T07:42:52;14.25;;;12.90;;
12228;SDS011;6177;52.402;9.800;2022-08-19T07:45:36;14.85;;;13.63;;
12228;SDS011;6177;52.402;9.800;2022-08-19T07:48:25;14.77;;;13.45;;
12228;SDS011;6177;52.402;9.800;2022-08-19T07:51:11;14.82;;;13.50;;
12228;SDS011;6177;52.402;9.800;2022-08-19T07:53:56;14.68;;;13.27;;
12228;SDS011;6177;52.402;9.800;2022-08-19T07:56:41;13.55;;;12.40;;
12228;SDS011;6177;52.402;9.800;2022-08-19T07:59:25;14.93;;;13.48;;
12228;SDS011;6177;52.402;9.800;2022-08-19T08:02:12;14.27;;;13.07;;
12228;SDS011;6177;52.402;9.800;2022-08-19T08:04:57;15.35;;;14.05;;
12228;SDS011;6177;52.402;9.800;2022-08-19T08:08:01;13.90;;;12.80;;
12228;SDS011;6177;52.402;9.800;2022-08-19T08:11:05;12.95;;;11.95;;
12228;SDS011;6177;52.402;9.800;2022-08-19T08:13:49;12.45;;;11.45;;
12228;SDS011;6177;52.402;9.800;2022-08-19T08:16:38;12.15;;;11.07;;
12228;SDS011;6177;52.402;9.800;2022-08-19T08:19:24;11.65;;;10.65;;
12228;SDS011;6177;52.402;9.800;2022-08-19T08:22:10;11.43;;;10.48;;
12228;SDS011;6177;52.402;9.800;2022-08-19T08:25:18;10.73;;;9.90;;
12228;SDS011;6177;52.402;9.800;2022-08-19T08:28:06;10.75;;;9.95;;
12228;SDS011;6177;52.402;9.800;2022-08-19T08:30:52;9.48;;;8.75;;
12228;SDS011;6177;52.402;9.800;2022-08-19T08:33:37;8.48;;;7.88;;
12228;SDS011;6177;52.402;9.800;2022-08-19T08:36:22;7.93;;;7.32;;
12228;SDS011;6177;52.402;9.800;2022-08-19T08:39:09;7.50;;;7.00;;
12228;SDS011;6177;52.402;9.800;2022-08-19T08:42:13;7.70;;;7.20;;
12228;SDS011;6177;52.402;9.800;2022-08-19T08:45:13;7.53;;;7.13;;
12228;SDS011;6177;52.402;9.800;2022-08-19T08:48:02;7.50;;;6.93;;
12228;SDS011;6177;52.402;9.800;2022-08-19T08:50:55;7.90;;;7.28;;
12228;SDS011;6177;52.402;9.800;2022-08-19T08:53:42;7.93;;;7.22;;
12228;SDS011;6177;52.402;9.800;2022-08-19T08:56:29;6.50;;;6.10;;
12228;SDS011;6177;52.402;9.800;2022-08-19T08:59:21;6.63;;;6.22;;
12228;SDS011;6177;52.402;9.800;2022-08-19T09:02:08;6.43;;;6.13;;
12228;SDS011;6177;52.402;9.800;2022-08-19T09:04:53;6.28;;;5.88;;
12228;SDS011;6177;52.402;9.800;2022-08-19T09:07:44;7.50;;;7.10;;
12228;SDS011;6177;52.402;9.800;2022-08-19T09:10:37;7.43;;;6.90;;
12228;SDS011;6177;52.402;9.800;2022-08-19T09:13:34;7.15;;;6.75;;
12228;SDS011;6177;52.402;9.800;2022-08-19T09:16:25;7.40;;;6.90;;
12228;SDS011;6177;52.402;9.800;2022-08-19T09:19:11;8.25;;;7.50;;
12228;SDS011;6177;52.402;9.800;2022-08-19T09:21:55;6.68;;;6.38;;
12228;SDS011;6177;52.402;9.800;2022-08-19T09:24:40;6.05;;;5.75;;
12228;SDS011;6177;52.402;9.800;2022-08-19T09:27:26;7.10;;;6.50;;
12228;SDS011;6177;52.402;9.800;2022-08-19T09:30:19;6.85;;;6.35;;
12228;SDS011;6177;52.402;9.800;2022-08-19T09:33:07;7.82;;;7.30;;
12228;SDS011;6177;52.402;9.800;2022-08-19T09:36:01;7.15;;;6.65;;
12228;SDS011;6177;52.402;9.800;2022-08-19T09:38:47;7.97;;;7.47;;
12228;SDS011;6177;52.402;9.800;2022-08-19T09:41:32;6.47;;;6.13;;
12228;SDS011;6177;52.402;9.800;2022-08-19T09:44:19;7.43;;;6.93;;
12228;SDS011;6177;52.402;9.800;2022-08-19T09:47:04;7.55;;;6.93;;
12228;SDS011;6177;52.402;9.800;2022-08-19T09:49:49;7.97;;;7.43;;
12228;SDS011;6177;52.402;9.800;2022-08-19T09:52:34;6.72;;;6.28;;
12228;SDS011;6177;52.402;9.800;2022-08-19T09:55:20;6.70;;;6.20;;
12228;SDS011;6177;52.402;9.800;2022-08-19T09:58:04;7.70;;;7.15;;
12228;SDS011;6177;52.402;9.800;2022-08-19T10:00:49;7.47;;;6.90;;
12228;SDS011;6177;52.402;9.800;2022-08-19T10:03:34;6.72;;;6.22;;
12228;SDS011;6177;52.402;9.800;2022-08-19T10:06:20;7.60;;;6.97;;
12228;SDS011;6177;52.402;9.800;2022-08-19T10:09:10;6.15;;;5.75;;
12228;SDS011;6177;52.402;9.800;2022-08-19T10:11:55;7.05;;;6.55;;
12228;SDS011;6177;52.402;9.800;2022-08-19T10:14:40;7.78;;;7.35;;
12228;SDS011;6177;52.402;9.800;2022-08-19T10:17:25;6.63;;;6.20;;
12228;SDS011;6177;52.402;9.800;2022-08-19T10:20:10;6.60;;;6.22;;
12228;SDS011;6177;52.402;9.800;2022-08-19T10:22:55;7.25;;;6.60;;
12228;SDS011;6177;52.402;9.800;2022-08-19T10:25:39;6.15;;;5.80;;
12228;SDS011;6177;52.402;9.800;2022-08-19T10:28:24;6.88;;;6.38;;
12228;SDS011;6177;52.402;9.800;2022-08-19T10:31:10;7.60;;;6.68;;
12228;SDS011;6177;52.402;9.800;2022-08-19T10:33:57;5.93;;;5.63;;
12228;SDS011;6177;52.402;9.800;2022-08-19T10:36:44;6.03;;;5.75;;
12228;SDS011;6177;52.402;9.800;2022-08-19T10:39:29;5.05;;;4.75;;
12228;SDS011;6177;52.402;9.800;2022-08-19T10:42:15;5.32;;;4.93;;
12228;SDS011;6177;52.402;9.800;2022-08-19T10:45:01;5.13;;;4.80;;
12228;SDS011;6177;52.402;9.800;2022-08-19T10:47:45;5.20;;;5.00;;
12228;SDS011;6177;52.402;9.800;2022-08-19T10:50:30;5.47;;;5.15;;
12228;SDS011;6177;52.402;9.800;2022-08-19T10:53:33;5.68;;;5.30;;
12228;SDS011;6177;52.402;9.800;2022-08-19T10:56:18;6.25;;;5.85;;
12228;SDS011;6177;52.402;9.800;2022-08-19T10:59:22;6.03;;;5.63;;
12228;SDS011;6177;52.402;9.800;2022-08-19T11:02:11;5.82;;;5.40;;
12228;SDS011;6177;52.402;9.800;2022-08-19T11:04:56;5.22;;;4.82;;
12228;SDS011;6177;52.402;9.800;2022-08-19T11:07:41;5.57;;;5.28;;
12228;SDS011;6177;52.402;9.800;2022-08-19T11:10:28;5.70;;;5.40;;
12228;SDS011;6177;52.402;9.800;2022-08-19T11:13:13;5.22;;;4.75;;
12228;SDS011;6177;52.402;9.800;2022-08-19T11:15:58;4.70;;;4.50;;
12228;SDS011;6177;52.402;9.800;2022-08-19T11:18:46;4.07;;;3.83;;
12228;SDS011;6177;52.402;9.800;2022-08-19T11:21:35;4.00;;;3.80;;
12228;SDS011;6177;52.402;9.800;2022-08-19T11:24:23;4.25;;;4.05;;
12228;SDS011;6177;52.402;9.800;2022-08-19T11:27:09;4.00;;;3.80;;
12228;SDS011;6177;52.402;9.800;2022-08-19T11:29:55;3.85;;;3.75;;
12228;SDS011;6177;52.402;9.800;2022-08-19T11:32:40;4.57;;;4.38;;
12228;SDS011;6177;52.402;9.800;2022-08-19T11:35:25;4.93;;;4.68;;
12228;SDS011;6177;52.402;9.800;2022-08-19T11:38:09;4.72;;;4.43;;
12228;SDS011;6177;52.402;9.800;2022-08-19T11:40:59;3.53;;;3.42;;
12228;SDS011;6177;52.402;9.800;2022-08-19T11:43:45;4.13;;;3.92;;
12228;SDS011;6177;52.402;9.800;2022-08-19T11:46:30;3.63;;;3.42;;
12228;SDS011;6177;52.402;9.800;2022-08-19T11:49:16;3.50;;;3.40;;
12228;SDS011;6177;52.402;9.800;2022-08-19T11:52:03;3.15;;;3.05;;
12228;SDS011;6177;52.402;9.800;2022-08-19T11:54:48;3.63;;;3.40;;
12228;SDS011;6177;52.402;9.800;2022-08-19T11:57:32;4.35;;;4.03;;
12228;SDS011;6177;52.402;9.800;2022-08-19T12:00:17;3.72;;;3.53;;
12228;SDS011;6177;52.402;9.800;2022-08-19T12:03:02;4.15;;;3.95;;
12228;SDS011;6177;52.402;9.800;2022-08-19T12:05:47;5.20;;;4.82;;
12228;SDS011;6177;52.402;9.800;2022-08-19T12:08:32;2.97;;;2.88;;
12228;SDS011;6177;52.402;9.800;2022-08-19T12:11:17;3.20;;;3.00;;
12228;SDS011;6177;52.402;9.800;2022-08-19T12:14:02;3.78;;;3.58;;
12228;SDS011;6177;52.402;9.800;2022-08-19T12:16:46;3.35;;;3.25;;
12228;SDS011;6177;52.402;9.800;2022-08-19T12:19:31;2.92;;;2.80;;
12228;SDS011;6177;52.402;9.800;2022-08-19T12:22:17;2.60;;;2.40;;
12228;SDS011;6177;52.402;9.800;2022-08-19T12:25:02;3.75;;;2.58;;
12228;SDS011;6177;52.402;9.800;2022-08-19T12:27:48;2.70;;;2.50;;
12228;SDS011;6177;52.402;9.800;2022-08-19T12:30:33;2.70;;;2.53;;
12228;SDS011;6177;52.402;9.800;2022-08-19T12:33:21;3.08;;;2.80;;
12228;SDS011;6177;52.402;9.800;2022-08-19T12:36:08;1.98;;;1.98;;
12228;SDS011;6177;52.402;9.800;2022-08-19T12:38:57;2.08;;;1.98;;
12228;SDS011;6177;52.402;9.800;2022-08-19T12:41:43;1.65;;;1.65;;
12228;SDS011;6177;52.402;9.800;2022-08-19T12:44:27;2.00;;;1.90;;
12228;SDS011;6177;52.402;9.800;2022-08-19T12:47:14;2.20;;;2.10;;
12228;SDS011;6177;52.402;9.800;2022-08-19T12:49:58;2.10;;;2.10;;
12228;SDS011;6177;52.402;9.800;2022-08-19T12:52:43;2.00;;;1.90;;
12228;SDS011;6177;52.402;9.800;2022-08-19T12:55:27;2.38;;;2.28;;
12228;SDS011;6177;52.402;9.800;2022-08-19T12:58:13;2.20;;;2.00;;
12228;SDS011;6177;52.402;9.800;2022-08-19T13:00:57;2.20;;;2.05;;
12228;SDS011;6177;52.402;9.800;2022-08-19T13:03:44;2.33;;;2.22;;
12228;SDS011;6177;52.402;9.800;2022-08-19T13:06:29;2.17;;;2.17;;
12228;SDS011;6177;52.402;9.800;2022-08-19T13:09:14;2.22;;;2.08;;
12228;SDS011;6177;52.402;9.800;2022-08-19T13:11:58;2.20;;;2.20;;
12228;SDS011;6177;52.402;9.800;2022-08-19T13:14:46;2.60;;;2.20;;
12228;SDS011;6177;52.402;9.800;2022-08-19T13:17:35;4.53;;;1.80;;
12228;SDS011;6177;52.402;9.800;2022-08-19T13:20:19;1.60;;;1.55;;
12228;SDS011;6177;52.402;9.800;2022-08-19T13:23:06;1.45;;;1.38;;
12228;SDS011;6177;52.402;9.800;2022-08-19T13:26:01;1.90;;;1.80;;
12228;SDS011;6177;52.402;9.800;2022-08-19T13:28:47;1.80;;;1.80;;
12228;SDS011;6177;52.402;9.800;2022-08-19T13:31:50;1.55;;;1.52;;
12228;SDS011;6177;52.402;9.800;2022-08-19T13:34:53;1.85;;;1.75;;
12228;SDS011;6177;52.402;9.800;2022-08-19T13:37:38;2.05;;;1.95;;
12228;SDS011;6177;52.402;9.800;2022-08-19T13:40:25;1.98;;;1.80;;
12228;SDS011;6177;52.402;9.800;2022-08-19T13:43:10;1.80;;;1.80;;
12228;SDS011;6177;52.402;9.800;2022-08-19T13:45:55;1.30;;;1.30;;
12228;SDS011;6177;52.402;9.800;2022-08-19T13:48:39;1.77;;;1.37;;
12228;SDS011;6177;52.402;9.800;2022-08-19T13:51:24;1.88;;;1.40;;
12228;SDS011;6177;52.402;9.800;2022-08-19T18:54:08;1.85;;;0.80;;
12228;SDS011;6177;52.402;9.800;2022-08-19T18:56:55;0.73;;;0.73;;
12228;SDS011;6177;52.402;9.800;2022-08-19T18:59:40;1.27;;;0.80;;
12228;SDS011;6177;52.402;9.800;2022-08-19T19:02:26;0.73;;;0.60;;
12228;SDS011;6177;52.402;9.800;2022-08-19T19:05:13;1.00;;;1.00;;
12228;SDS011;6177;52.402;9.800;2022-08-19T19:07:58;1.25;;;0.85;;
12228;SDS011;6177;52.402;9.800;2022-08-19T19:10:43;0.80;;;0.80;;
12228;SDS011;6177;52.402;9.800;2022-08-19T19:13:27;1.33;;;0.75;;
12228;SDS011;6177;52.402;9.800;2022-08-19T19:16:12;0.80;;;0.80;;
12228;SDS011;6177;52.402;9.800;2022-08-19T19:18:57;1.60;;;0.70;;
12228;SDS011;6177;52.402;9.800;2022-08-19T19:21:43;0.98;;;0.98;;
12228;SDS011;6177;52.402;9.800;2022-08-19T19:24:31;0.95;;;0.95;;
12228;SDS011;6177;52.402;9.800;2022-08-19T19:27:17;4.25;;;3.85;;
12228;SDS011;6177;52.402;9.800;2022-08-19T19:30:03;5.15;;;4.75;;
12228;SDS011;6177;52.402;9.800;2022-08-19T19:32:48;2.50;;;2.40;;
12228;SDS011;6177;52.402;9.800;2022-08-19T19:35:34;2.10;;;2.00;;
12228;SDS011;6177;52.402;9.800;2022-08-19T19:38:18;1.38;;;1.00;;
12228;SDS011;6177;52.402;9.800;2022-08-19T19:41:03;1.00;;;1.00;;
12228;SDS011;6177;52.402;9.800;2022-08-19T19:43:48;1.13;;;1.13;;
12228;SDS011;6177;52.402;9.800;2022-08-19T19:46:38;1.65;;;1.65;;
12228;SDS011;6177;52.402;9.800;2022-08-19T19:49:24;1.60;;;1.60;;
12228;SDS011;6177;52.402;9.800;2022-08-19T19:52:08;1.65;;;1.55;;
12228;SDS011;6177;52.402;9.800;2022-08-19T19:54:53;1.45;;;1.35;;
12228;SDS011;6177;52.402;9.800;2022-08-19T19:57:39;1.40;;;1.40;;
12228;SDS011;6177;52.402;9.800;2022-08-19T20:00:24;1.60;;;1.55;;
12228;SDS011;6177;52.402;9.800;2022-08-19T20:03:09;1.20;;;1.17;;
12228;SDS011;6177;52.402;9.800;2022-08-19T20:05:54;1.10;;;1.10;;
12228;SDS011;6177;52.402;9.800;2022-08-19T20:08:42;1.10;;;1.10;;
12228;SDS011;6177;52.402;9.800;2022-08-19T20:11:49;0.95;;;0.95;;
12228;SDS011;6177;52.402;9.800;2022-08-19T20:14:35;1.50;;;1.00;;
12228;SDS011;6177;52.402;9.800;2022-08-19T20:17:21;0.90;;;0.90;;
12228;SDS011;6177;52.402;9.800;2022-08-19T20:20:06;2.53;;;1.58;;
12228;SDS011;6177;52.402;9.800;2022-08-19T20:22:57;1.80;;;1.80;;
12228;SDS011;6177;52.402;9.800;2022-08-19T20:25:42;1.40;;;1.40;;
12228;SDS011;6177;52.402;9.800;2022-08-19T20:28:27;1.40;;;1.40;;
12228;SDS011;6177;52.402;9.800;2022-08-19T20:31:12;1.25;;;1.20;;
12228;SDS011;6177;52.402;9.800;2022-08-19T20:33:57;1.13;;;1.13;;
12228;SDS011;6177;52.402;9.800;2022-08-19T20:36:42;1.40;;;1.30;;
12228;SDS011;6177;52.402;9.800;2022-08-19T20:39:26;2.22;;;1.23;;
12228;SDS011;6177;52.402;9.800;2022-08-19T20:42:11;1.27;;;1.20;;
12228;SDS011;6177;52.402;9.800;2022-08-19T20:44:56;1.30;;;1.20;;
12228;SDS011;6177;52.402;9.800;2022-08-19T20:47:40;1.13;;;1.13;;
12228;SDS011;6177;52.402;9.800;2022-08-19T20:50:25;1.58;;;1.45;;
12228;SDS011;6177;52.402;9.800;2022-08-19T20:53:11;0.90;;;0.90;;
12228;SDS011;6177;52.402;9.800;2022-08-19T20:55:57;1.42;;;1.40;;
12228;SDS011;6177;52.402;9.800;2022-08-19T20:58:42;2.13;;;1.52;;
12228;SDS011;6177;52.402;9.800;2022-08-19T21:01:27;0.93;;;0.93;;
12228;SDS011;6177;52.402;9.800;2022-08-19T21:04:11;2.50;;;1.25;;
12228;SDS011;6177;52.402;9.800;2022-08-19T21:06:56;1.70;;;1.70;;
12228;SDS011;6177;52.402;9.800;2022-08-19T21:09:41;1.10;;;1.10;;
12228;SDS011;6177;52.402;9.800;2022-08-19T21:12:26;1.92;;;1.75;;
12228;SDS011;6177;52.402;9.800;2022-08-19T21:15:10;1.38;;;1.38;;
12228;SDS011;6177;52.402;9.800;2022-08-19T21:17:55;1.67;;;1.63;;
12228;SDS011;6177;52.402;9.800;2022-08-19T21:20:40;2.45;;;2.35;;
12228;SDS011;6177;52.402;9.800;2022-08-19T21:23:26;1.42;;;1.33;;
12228;SDS011;6177;52.402;9.800;2022-08-19T21:26:12;1.40;;;1.40;;
12228;SDS011;6177;52.402;9.800;2022-08-19T21:28:57;1.20;;;1.20;;
12228;SDS011;6177;52.402;9.800;2022-08-19T21:31:41;1.70;;;1.60;;
12228;SDS011;6177;52.402;9.800;2022-08-19T21:34:26;1.38;;;1.38;;
12228;SDS011;6177;52.402;9.800;2022-08-19T21:37:10;1.40;;;1.40;;
12228;SDS011;6177;52.402;9.800;2022-08-19T21:39:56;2.00;;;1.90;;
12228;SDS011;6177;52.402;9.800;2022-08-19T21:42:40;1.88;;;1.77;;
12228;SDS011;6177;52.402;9.800;2022-08-19T21:45:25;3.40;;;1.52;;
12228;SDS011;6177;52.402;9.800;2022-08-19T21:48:11;1.33;;;1.33;;
12228;SDS011;6177;52.402;9.800;2022-08-19T21:50:57;1.40;;;1.40;;
12228;SDS011;6177;52.402;9.800;2022-08-19T21:53:41;1.92;;;1.83;;
12228;SDS011;6177;52.402;9.800;2022-08-19T21:56:26;1.52;;;1.42;;
12228;SDS011;6177;52.402;9.800;2022-08-19T21:59:10;1.50;;;1.50;;
12228;SDS011;6177;52.402;9.800;2022-08-19T22:01:55;2.35;;;2.10;;
12228;SDS011;6177;52.402;9.800;2022-08-19T22:04:40;2.60;;;1.80;;